createdAt,value
2022-08-28T00:00:39.725Z,19.90
2022-08-28T00:03:08.173Z,19.90
2022-08-28T00:05:36.296Z,19.90
2022-08-28T00:08:04.219Z,19.90
2022-08-28T00:10:32.378Z,19.90
2022-08-28T00:13:00.229Z,19.90
2022-08-28T00:15:35.233Z,19.90
2022-08-28T00:18:04.271Z,19.90
2022-08-28T00:20:33.388Z,20.00
2022-08-28T00:23:04.857Z,20.00
2022-08-28T00:25:34.291Z,20.00
2022-08-28T00:28:10.497Z,20.10
2022-08-28T00:30:45.125Z,20.10
2022-08-28T00:33:23.797Z,20.10
2022-08-28T00:35:55.451Z,20.10
2022-08-28T00:38:26.191Z,20.00
2022-08-28T00:40:58.359Z,20.00
2022-08-28T00:43:45.583Z,20.00
2022-08-28T00:46:17.033Z,19.90
2022-08-28T00:48:44.751Z,19.80
2022-08-28T00:51:34.161Z,19.90
2022-08-28T00:54:07.388Z,19.90
2022-08-28T00:56:38.449Z,19.80
2022-08-28T00:59:10.652Z,19.80
2022-08-28T01:01:39.251Z,19.90
2022-08-28T01:04:07.367Z,19.90
2022-08-28T01:06:36.912Z,19.90
2022-08-28T01:09:06.375Z,19.90
2022-08-28T01:11:34.510Z,19.90
2022-08-28T01:14:05.090Z,19.90
2022-08-28T01:16:33.995Z,19.80
2022-08-28T01:19:05.912Z,19.90
2022-08-28T01:21:51.741Z,19.80
2022-08-28T01:24:20.848Z,19.80
2022-08-28T01:26:48.460Z,19.80
2022-08-28T01:29:16.446Z,19.70
2022-08-28T01:31:48.901Z,19.70
2022-08-28T01:34:19.157Z,19.70
2022-08-28T01:36:48.579Z,19.80
2022-08-28T01:39:19.495Z,19.80
2022-08-28T01:41:52.053Z,19.80
2022-08-28T01:44:25.100Z,19.80
2022-08-28T01:46:54.637Z,19.80
2022-08-28T01:49:29.215Z,19.80
2022-08-28T01:51:58.366Z,19.80
2022-08-28T01:54:26.551Z,19.80
2022-08-28T01:56:55.412Z,19.80
2022-08-28T01:59:26.016Z,19.70
2022-08-28T02:01:55.218Z,19.80
2022-08-28T02:04:29.645Z,19.70
2022-08-28T02:07:00.316Z,19.70
2022-08-28T02:09:28.039Z,19.80
2022-08-28T02:11:58.900Z,19.70
2022-08-28T02:14:29.391Z,19.80
2022-08-28T02:16:57.069Z,19.80
2022-08-28T02:19:27.683Z,19.80
2022-08-28T02:21:55.588Z,19.80
2022-08-28T02:24:33.536Z,19.80
2022-08-28T02:27:13.933Z,19.70
2022-08-28T02:29:45.781Z,19.70
2022-08-28T02:32:37.745Z,19.80
2022-08-28T02:35:32.513Z,19.80
2022-08-28T02:38:13.418Z,19.80
2022-08-28T02:40:55.311Z,19.80
2022-08-28T02:46:32.477Z,19.90
2022-08-28T02:49:14.783Z,19.80
2022-08-28T02:51:51.151Z,19.70
2022-08-28T02:54:41.655Z,19.80
2022-08-28T02:57:21.948Z,19.70
2022-08-28T03:03:03.831Z,19.70
2022-08-28T03:05:38.852Z,19.70
2022-08-28T03:08:06.914Z,19.70
2022-08-28T03:10:35.047Z,19.70
2022-08-28T03:13:02.708Z,19.70
2022-08-28T03:15:30.474Z,19.70
2022-08-28T03:17:58.257Z,19.60
2022-08-28T03:20:25.901Z,19.60
2022-08-28T03:23:11.942Z,19.60
2022-08-28T03:25:39.848Z,19.50
2022-08-28T03:28:07.565Z,19.60
2022-08-28T03:30:35.300Z,19.60
2022-08-28T03:33:03.210Z,19.60
2022-08-28T03:35:31.001Z,19.60
2022-08-28T03:37:58.633Z,19.60
2022-08-28T03:40:27.527Z,19.60
2022-08-28T03:42:55.240Z,19.60
2022-08-28T03:45:22.867Z,19.60
2022-08-28T03:47:51.324Z,19.50
2022-08-28T03:50:23.111Z,19.50
2022-08-28T03:52:55.323Z,19.50
2022-08-28T03:55:23.010Z,19.50
2022-08-28T03:57:51.532Z,19.40
2022-08-28T04:00:20.358Z,19.40
2022-08-28T04:02:48.197Z,19.50
2022-08-28T04:05:17.585Z,19.50
2022-08-28T04:07:45.618Z,19.50
2022-08-28T04:10:13.697Z,19.50
2022-08-28T04:13:07.962Z,19.50
2022-08-28T04:15:35.591Z,19.50
2022-08-28T04:18:03.527Z,19.40
2022-08-28T04:20:31.193Z,19.40
2022-08-28T04:22:58.911Z,19.50
2022-08-28T04:25:28.094Z,19.50
2022-08-28T04:27:55.777Z,19.50
2022-08-28T04:30:24.296Z,19.50
2022-08-28T04:32:51.928Z,19.50
2022-08-28T04:35:19.681Z,19.50
2022-08-28T04:37:47.731Z,19.50
2022-08-28T04:40:16.003Z,19.50
2022-08-28T04:42:47.465Z,19.50
2022-08-28T04:45:15.247Z,19.60
2022-08-28T04:47:54.461Z,19.60
2022-08-28T04:50:25.611Z,19.70
2022-08-28T04:56:15.650Z,19.80
2022-08-28T05:01:42.691Z,19.80
2022-08-28T05:04:35.563Z,19.80
2022-08-28T05:07:03.510Z,19.80
2022-08-28T05:09:33.505Z,19.90
2022-08-28T05:12:05.695Z,19.90
2022-08-28T05:14:39.935Z,19.80
2022-08-28T05:17:09.322Z,19.80
2022-08-28T05:19:37.943Z,19.90
2022-08-28T05:22:05.791Z,20.00
2022-08-28T05:24:33.419Z,20.00
2022-08-28T05:27:04.222Z,20.00
2022-08-28T05:29:32.125Z,20.10
2022-08-28T05:31:59.815Z,20.20
2022-08-28T05:34:27.924Z,20.20
2022-08-28T05:36:55.687Z,20.20
2022-08-28T05:39:23.302Z,20.30
2022-08-28T05:41:51.041Z,20.30
2022-08-28T05:44:19.656Z,20.30
2022-08-28T05:46:48.230Z,20.20
2022-08-28T05:49:18.329Z,20.30
2022-08-28T05:54:30.575Z,20.40
2022-08-28T05:56:58.421Z,20.40
2022-08-28T05:59:26.454Z,20.50
2022-08-28T06:01:54.139Z,20.60
2022-08-28T06:04:27.085Z,20.60
2022-08-28T06:06:55.256Z,20.70
2022-08-28T06:09:29.389Z,20.80
2022-08-28T06:12:03.251Z,20.90
2022-08-28T06:14:32.445Z,21.00
2022-08-28T06:17:09.623Z,21.10
2022-08-28T06:19:41.335Z,21.20
2022-08-28T06:22:12.086Z,21.30
2022-08-28T06:25:13.799Z,21.20
2022-08-28T06:27:54.059Z,21.10
2022-08-28T06:30:31.557Z,21.10
2022-08-28T06:33:08.354Z,21.00
2022-08-28T06:35:49.572Z,21.00
2022-08-28T06:38:37.490Z,21.10
2022-08-28T06:41:15.524Z,21.20
2022-08-28T06:43:43.456Z,21.00
2022-08-28T06:46:21.765Z,21.20
2022-08-28T06:48:55.276Z,21.20
2022-08-28T06:51:25.001Z,21.40
2022-08-28T06:54:04.024Z,21.60
2022-08-28T06:56:37.368Z,21.80
2022-08-28T06:59:09.386Z,21.90
2022-08-28T07:01:37.439Z,22.00
2022-08-28T07:04:22.566Z,22.10
2022-08-28T07:06:54.903Z,22.00
2022-08-28T07:09:38.879Z,21.80
2022-08-28T07:12:20.021Z,22.00
2022-08-28T07:15:07.600Z,22.00
2022-08-28T07:17:45.392Z,22.10
2022-08-28T07:20:30.283Z,22.30
2022-08-28T07:29:32.443Z,22.70
2022-08-28T07:32:15.256Z,22.60
2022-08-28T07:35:15.636Z,22.80
2022-08-28T07:38:04.058Z,22.90
2022-08-28T07:40:43.003Z,22.70
2022-08-28T07:43:55.109Z,22.50
2022-08-28T07:46:52.699Z,22.50
2022-08-28T07:49:41.719Z,22.60
2022-08-28T07:52:26.490Z,23.00
2022-08-28T07:55:30.055Z,23.20
2022-08-28T07:58:28.354Z,23.50
2022-08-28T08:01:21.914Z,23.60
2022-08-28T08:04:04.560Z,23.70
2022-08-28T08:07:00.101Z,23.80
2022-08-28T08:09:33.318Z,23.90
2022-08-28T08:12:01.099Z,23.70
2022-08-28T08:14:28.900Z,23.50
2022-08-28T08:16:56.552Z,23.40
2022-08-28T08:19:24.219Z,22.80
2022-08-28T08:21:54.984Z,22.80
2022-08-28T08:24:28.402Z,22.70
2022-08-28T08:27:00.904Z,22.70
2022-08-28T08:29:36.212Z,23.00
2022-08-28T08:32:07.102Z,23.50
2022-08-28T08:34:38.658Z,23.90
2022-08-28T08:37:07.022Z,24.40
2022-08-28T08:39:36.203Z,24.50
2022-08-28T08:42:09.242Z,24.80
2022-08-28T08:44:43.330Z,25.20
2022-08-28T08:47:20.038Z,25.60
2022-08-28T08:49:57.071Z,25.90
2022-08-28T08:52:52.215Z,25.80
2022-08-28T08:55:31.961Z,25.30
2022-08-28T08:58:05.145Z,25.30
2022-08-28T09:00:46.655Z,25.40
2022-08-28T09:03:20.196Z,25.70
2022-08-28T09:06:06.338Z,25.60
2022-08-28T09:08:45.690Z,26.00
2022-08-28T09:11:41.173Z,26.20
2022-08-28T09:14:39.143Z,25.90
2022-08-28T09:17:08.640Z,25.90
2022-08-28T09:19:36.596Z,25.90
2022-08-28T09:22:04.756Z,25.70
2022-08-28T09:24:36.819Z,25.30
2022-08-28T09:27:34.968Z,25.20
2022-08-28T09:30:10.361Z,24.70
2022-08-28T09:32:44.459Z,24.50
2022-08-28T09:35:27.411Z,23.90
2022-08-28T09:37:56.137Z,23.80
2022-08-28T09:40:48.057Z,24.10
2022-08-28T09:43:27.376Z,24.60
2022-08-28T09:46:00.057Z,25.00
2022-08-28T09:48:37.538Z,25.50
2022-08-28T09:51:09.369Z,25.80
2022-08-28T09:53:50.903Z,26.20
2022-08-28T09:56:24.809Z,26.30
2022-08-28T09:59:00.116Z,26.40
2022-08-28T10:01:45.235Z,26.50
2022-08-28T10:04:48.384Z,26.70
2022-08-28T10:07:30.245Z,26.40
2022-08-28T10:10:25.219Z,26.20
2022-08-28T10:13:27.725Z,26.20
2022-08-28T10:16:06.152Z,25.80
2022-08-28T10:18:49.435Z,25.60
2022-08-28T10:21:32.283Z,26.10
2022-08-28T10:24:14.768Z,26.70
2022-08-28T10:27:17.298Z,27.10
2022-08-28T10:30:08.812Z,27.00
2022-08-28T10:32:52.371Z,26.50
2022-08-28T10:35:25.269Z,26.50
2022-08-28T10:38:16.800Z,26.40
2022-08-28T10:41:10.617Z,26.20
2022-08-28T10:43:48.104Z,26.40
2022-08-28T10:46:37.043Z,26.70
2022-08-28T10:49:15.209Z,27.00
2022-08-28T10:51:57.115Z,27.80
2022-08-28T10:54:42.452Z,28.70
2022-08-28T10:57:36.128Z,29.20
2022-08-28T11:00:14.743Z,29.60
2022-08-28T11:02:47.116Z,30.00
2022-08-28T11:05:19.742Z,30.60
2022-08-28T11:08:05.286Z,31.10
2022-08-28T11:10:35.654Z,31.50
2022-08-28T11:13:06.192Z,33.30
2022-08-28T11:15:36.996Z,34.30
2022-08-28T11:18:08.236Z,35.50
2022-08-28T11:20:37.739Z,34.20
2022-08-28T11:23:35.559Z,33.10
2022-08-28T11:26:08.638Z,33.60
2022-08-28T11:28:36.420Z,33.40
2022-08-28T11:31:04.217Z,32.70
2022-08-28T11:33:36.890Z,32.60
2022-08-28T11:36:12.783Z,33.60
2022-08-28T11:38:43.368Z,34.10
2022-08-28T11:41:22.519Z,34.40
2022-08-28T11:44:14.480Z,36.10
2022-08-28T11:46:50.276Z,38.50
2022-08-28T11:49:29.481Z,39.00
2022-08-28T11:52:15.046Z,37.60
2022-08-28T11:55:04.722Z,37.20
2022-08-28T11:57:47.750Z,37.80
2022-08-28T12:00:31.604Z,36.50
2022-08-28T12:03:08.416Z,34.50
2022-08-28T12:05:40.133Z,33.20
2022-08-28T12:08:10.765Z,32.80
2022-08-28T12:10:38.383Z,33.30
2022-08-28T12:13:08.445Z,33.50
2022-08-28T12:15:37.309Z,32.60
2022-08-28T12:18:11.142Z,32.20
2022-08-28T12:20:51.099Z,33.00
2022-08-28T12:23:27.408Z,33.90
2022-08-28T12:26:21.649Z,34.30
2022-08-28T12:28:57.407Z,36.00
2022-08-28T12:31:58.167Z,37.20
2022-08-28T12:34:38.282Z,38.80
2022-08-28T12:37:23.526Z,38.10
2022-08-28T12:39:52.828Z,39.70
2022-08-28T12:42:24.427Z,39.10
2022-08-28T12:44:52.267Z,37.90
2022-08-28T12:47:22.889Z,36.00
2022-08-28T12:49:50.673Z,35.80
2022-08-28T12:52:21.469Z,35.30
2022-08-28T12:54:50.944Z,33.50
2022-08-28T12:57:22.773Z,31.60
2022-08-28T12:59:55.879Z,31.10
2022-08-28T13:02:31.801Z,31.20
2022-08-28T13:05:09.107Z,30.60
2022-08-28T13:07:51.907Z,30.40
2022-08-28T13:10:26.517Z,30.10
2022-08-28T13:13:05.199Z,30.00
2022-08-28T13:15:45.516Z,29.40
2022-08-28T13:18:49.794Z,28.80
2022-08-28T13:21:30.800Z,29.10
2022-08-28T13:24:21.929Z,29.30
2022-08-28T13:26:59.814Z,29.10
2022-08-28T13:29:27.717Z,29.10
2022-08-28T13:31:59.304Z,29.10
2022-08-28T13:34:30.766Z,28.60
2022-08-28T13:37:01.261Z,29.00
2022-08-28T13:39:31.666Z,28.90
2022-08-28T13:42:12.544Z,29.20
2022-08-28T13:44:50.449Z,29.30
2022-08-28T13:47:18.118Z,29.50
2022-08-28T13:49:46.663Z,29.60
2022-08-28T13:52:14.489Z,29.10
2022-08-28T13:54:43.763Z,29.30
2022-08-28T13:57:13.857Z,29.60
2022-08-28T13:59:41.993Z,29.70
2022-08-28T14:02:32.135Z,29.60
2022-08-28T14:05:00.239Z,29.60
2022-08-28T14:07:29.416Z,30.70
2022-08-28T14:09:57.544Z,31.60
2022-08-28T14:12:31.410Z,33.60
2022-08-28T14:15:02.504Z,35.40
2022-08-28T14:17:30.598Z,35.80
2022-08-28T14:20:00.253Z,36.10
2022-08-28T14:22:28.436Z,37.40
2022-08-28T14:24:56.128Z,38.60
2022-08-28T14:27:23.775Z,38.60
2022-08-28T14:29:53.328Z,38.10
2022-08-28T14:32:21.103Z,38.20
2022-08-28T14:34:50.521Z,37.60
2022-08-28T14:37:18.280Z,38.50
2022-08-28T14:39:46.080Z,38.30
2022-08-28T14:42:13.735Z,38.80
2022-08-28T14:44:41.355Z,37.70
2022-08-28T14:47:09.008Z,36.00
2022-08-28T14:49:36.702Z,34.80
2022-08-28T14:52:04.605Z,34.20
2022-08-28T14:54:32.290Z,34.70
2022-08-28T14:56:59.943Z,36.80
2022-08-28T14:59:29.835Z,36.10
2022-08-28T15:02:00.006Z,36.50
2022-08-28T15:04:37.550Z,35.10
2022-08-28T15:07:08.598Z,34.10
2022-08-28T15:09:39.368Z,32.50
2022-08-28T15:12:07.537Z,31.90
2022-08-28T15:14:36.161Z,31.80
2022-08-28T15:17:04.349Z,34.10
2022-08-28T15:19:32.260Z,36.70
2022-08-28T15:22:00.824Z,38.70
2022-08-28T15:24:31.360Z,39.90
2022-08-28T15:26:59.731Z,39.90
2022-08-28T15:29:29.797Z,40.60
2022-08-28T15:31:58.402Z,39.90
2022-08-28T15:34:28.241Z,40.60
2022-08-28T15:36:57.518Z,40.50
2022-08-28T15:39:45.587Z,40.80
2022-08-28T15:42:16.545Z,41.20
2022-08-28T15:44:44.375Z,41.20
2022-08-28T15:47:13.732Z,40.60
2022-08-28T15:49:44.826Z,39.80
2022-08-28T15:52:18.671Z,37.80
2022-08-28T15:54:49.594Z,35.20
2022-08-28T15:57:17.565Z,34.40
2022-08-28T15:59:50.125Z,33.90
2022-08-28T16:02:21.907Z,33.40
2022-08-28T16:04:49.945Z,34.10
2022-08-28T16:07:19.251Z,35.30
2022-08-28T16:09:47.187Z,36.30
2022-08-28T16:12:15.134Z,37.20
2022-08-28T16:14:42.876Z,37.10
2022-08-28T16:17:11.472Z,36.60
2022-08-28T16:19:40.257Z,37.40
2022-08-28T16:22:15.904Z,38.10
2022-08-28T16:24:45.075Z,38.60
2022-08-28T16:27:15.505Z,38.90
2022-08-28T16:29:44.975Z,39.00
2022-08-28T16:32:13.705Z,39.40
2022-08-28T16:34:44.662Z,38.50
2022-08-28T16:37:13.260Z,37.10
2022-08-28T16:39:46.206Z,37.60
2022-08-28T16:42:14.814Z,37.10
2022-08-28T16:44:42.426Z,36.20
2022-08-28T16:47:10.169Z,36.20
2022-08-28T16:49:37.835Z,36.90
2022-08-28T16:52:05.515Z,36.80
2022-08-28T16:54:33.416Z,36.30
2022-08-28T16:57:01.055Z,36.00
2022-08-28T16:59:28.805Z,35.50
2022-08-28T17:01:56.489Z,34.90
2022-08-28T17:04:25.659Z,34.80
2022-08-28T17:06:53.351Z,34.70
2022-08-28T17:09:23.274Z,33.10
2022-08-28T17:11:52.215Z,32.30
2022-08-28T17:14:21.825Z,31.10
2022-08-28T17:16:50.754Z,30.70
2022-08-28T17:19:19.398Z,30.40
2022-08-28T17:22:06.372Z,29.80
2022-08-28T17:24:33.995Z,29.10
2022-08-28T17:27:05.389Z,28.40
2022-08-28T17:29:34.712Z,28.00
2022-08-28T17:32:02.626Z,27.70
2022-08-28T17:34:30.713Z,27.40
2022-08-28T17:36:58.416Z,27.20
2022-08-28T17:39:26.064Z,27.10
2022-08-28T17:41:53.698Z,27.00
2022-08-28T17:44:21.416Z,26.80
2022-08-28T17:46:51.680Z,26.50
2022-08-28T17:49:19.500Z,26.50
2022-08-28T17:51:47.560Z,26.50
2022-08-28T17:54:18.303Z,26.40
2022-08-28T17:56:48.715Z,26.30
2022-08-28T17:59:19.518Z,26.20
2022-08-28T18:01:50.264Z,26.00
2022-08-28T18:04:23.920Z,26.00
2022-08-28T18:06:55.071Z,26.00
2022-08-28T18:09:23.624Z,25.90
2022-08-28T18:11:52.238Z,25.70
2022-08-28T18:14:20.898Z,25.60
2022-08-28T18:16:48.679Z,25.50
2022-08-28T18:19:16.634Z,25.40
2022-08-28T18:21:45.017Z,25.30
2022-08-28T18:24:13.085Z,25.20
2022-08-28T18:26:42.542Z,25.10
2022-08-28T18:29:10.908Z,25.00
2022-08-28T18:31:38.985Z,25.00
2022-08-28T18:34:07.156Z,25.00
2022-08-28T18:36:37.051Z,24.90
2022-08-28T18:39:04.680Z,24.70
2022-08-28T18:41:43.102Z,24.70
2022-08-28T18:44:14.164Z,24.60
2022-08-28T18:46:43.118Z,24.50
2022-08-28T18:49:11.887Z,24.40
2022-08-28T18:51:41.706Z,24.40
2022-08-28T18:54:10.446Z,24.30
2022-08-28T18:56:39.992Z,24.20
2022-08-28T18:59:09.066Z,24.10
2022-08-28T19:01:36.943Z,24.10
2022-08-28T19:04:05.929Z,24.00
2022-08-28T19:06:34.267Z,23.90
2022-08-28T19:09:02.057Z,23.90
2022-08-28T19:11:30.223Z,23.80
2022-08-28T19:13:58.545Z,23.80
2022-08-28T19:16:26.186Z,23.70
2022-08-28T19:18:55.599Z,23.70
2022-08-28T19:21:23.279Z,23.60
2022-08-28T19:23:55.733Z,23.60
2022-08-28T19:26:25.437Z,23.40
2022-08-28T19:28:53.673Z,23.40
2022-08-28T19:31:22.502Z,23.30
2022-08-28T19:33:50.267Z,23.30
2022-08-28T19:36:18.614Z,23.20
2022-08-28T19:38:46.261Z,23.30
2022-08-28T19:41:14.454Z,23.20
2022-08-28T19:43:43.377Z,23.20
2022-08-28T19:46:19.601Z,23.20
2022-08-28T19:48:50.279Z,23.10
2022-08-28T19:51:23.424Z,23.10
2022-08-28T19:53:57.936Z,23.10
2022-08-28T19:56:31.477Z,23.20
2022-08-28T19:59:01.433Z,23.20
2022-08-28T20:01:31.267Z,23.20
2022-08-28T20:04:00.246Z,23.20
2022-08-28T20:06:30.963Z,23.10
2022-08-28T20:08:58.908Z,23.00
2022-08-28T20:11:30.408Z,23.00
2022-08-28T20:14:04.115Z,23.00
2022-08-28T20:16:35.864Z,22.90
2022-08-28T20:19:05.189Z,22.90
2022-08-28T20:21:37.112Z,22.80
2022-08-28T20:24:12.748Z,22.70
2022-08-28T20:26:41.247Z,22.70
2022-08-28T20:29:09.890Z,22.60
2022-08-28T20:31:40.401Z,22.50
2022-08-28T20:34:12.226Z,22.50
2022-08-28T20:36:39.901Z,22.30
2022-08-28T20:39:09.321Z,22.20
2022-08-28T20:41:39.381Z,22.10
2022-08-28T20:44:09.206Z,22.10
2022-08-28T20:46:40.790Z,22.10
2022-08-28T20:49:11.081Z,22.00
2022-08-28T20:51:58.870Z,22.00
2022-08-28T20:54:38.383Z,21.80
2022-08-28T20:57:09.331Z,21.70
2022-08-28T20:59:40.241Z,21.60
2022-08-28T21:02:13.814Z,21.60
2022-08-28T21:04:42.681Z,21.50
2022-08-28T21:07:11.349Z,21.50
2022-08-28T21:10:04.607Z,21.30
2022-08-28T21:12:27.226Z,21.30
2022-08-28T21:14:54.949Z,21.20
2022-08-28T21:17:29.112Z,21.10
2022-08-28T21:20:04.260Z,21.10
2022-08-28T21:22:32.922Z,20.90
2022-08-28T21:25:01.218Z,20.80
2022-08-28T21:27:29.584Z,20.70
2022-08-28T21:29:59.350Z,20.70
2022-08-28T21:32:28.672Z,20.60
2022-08-28T21:34:56.885Z,20.60
2022-08-28T21:37:24.566Z,20.60
2022-08-28T21:39:52.482Z,20.50
2022-08-28T21:42:24.006Z,20.50
2022-08-28T21:44:52.233Z,20.50
2022-08-28T21:47:22.901Z,20.40
2022-08-28T21:49:53.150Z,20.40
2022-08-28T21:52:23.336Z,20.30
2022-08-28T21:54:56.856Z,20.30
2022-08-28T21:57:24.920Z,20.30
2022-08-28T21:59:52.526Z,20.30
2022-08-28T22:02:20.707Z,20.20
2022-08-28T22:04:49.018Z,20.20
2022-08-28T22:07:17.963Z,20.20
2022-08-28T22:09:46.076Z,20.10
2022-08-28T22:12:13.696Z,20.10
2022-08-28T22:14:42.219Z,20.10
2022-08-28T22:17:11.523Z,20.10
2022-08-28T22:19:40.086Z,20.10
2022-08-28T22:22:27.063Z,20.00
2022-08-28T22:24:54.889Z,20.00
2022-08-28T22:27:23.069Z,19.90
2022-08-28T22:29:51.010Z,19.70
2022-08-28T22:32:22.236Z,19.60
2022-08-28T22:34:49.859Z,19.50
2022-08-28T22:37:17.468Z,19.60
2022-08-28T22:39:45.057Z,19.50
2022-08-28T22:42:12.700Z,19.40
2022-08-28T22:44:40.398Z,19.30
2022-08-28T22:47:08.572Z,19.20
2022-08-28T22:49:39.616Z,19.20
2022-08-28T22:52:10.559Z,19.10
2022-08-28T22:54:38.224Z,19.00
2022-08-28T22:57:06.017Z,19.00
2022-08-28T22:59:34.610Z,19.10
2022-08-28T23:02:03.692Z,19.00
2022-08-28T23:04:31.406Z,19.00
2022-08-28T23:06:59.111Z,19.00
2022-08-28T23:09:27.472Z,18.80
2022-08-28T23:11:55.105Z,18.80
2022-08-28T23:14:27.780Z,18.80
2022-08-28T23:16:55.959Z,18.70
2022-08-28T23:19:24.058Z,18.70
2022-08-28T23:21:52.413Z,18.70
2022-08-28T23:24:20.084Z,18.60
2022-08-28T23:26:47.712Z,18.50
2022-08-28T23:29:15.385Z,18.50
2022-08-28T23:31:43.494Z,18.50
2022-08-28T23:34:11.345Z,18.50
2022-08-28T23:36:40.906Z,18.50
2022-08-28T23:39:11.375Z,18.50
2022-08-28T23:41:39.201Z,18.40
2022-08-28T23:44:09.131Z,18.40
2022-08-28T23:46:37.298Z,18.40
2022-08-28T23:49:10.877Z,18.30
2022-08-28T23:51:39.583Z,18.30
2022-08-28T23:54:09.207Z,18.30
2022-08-28T23:56:37.822Z,18.20
2022-08-28T23:59:06.177Z,18.10
